Time;durP1;ratioP1;P1;durP2;ratioP2;P2;SDS_P1;SDS_P2;PMS_P1;PMS_P2;Temp;Humidity;BMP_temperature;BMP_pressure;BME280_temperature;BME280_humidity;BME280_pressure;Samples;Min_cycle;Max_cycle;Signal;HPM_P1;HPM_P2
2022/04/04 00:00:37;;;;;;;;;;;11.50;99.90;;;;;;6244676;23;19931;-71
2022/04/04 00:03:04;;;;;;;;;;;11.50;99.90;;;;;;6243755;23;19911;-72
2022/04/04 00:05:30;;;;;;;;;;;11.50;99.90;;;;;;6243837;23;19982;-73
2022/04/04 00:07:56;;;;;;;;;;;11.50;99.90;;;;;;6243840;23;19930;-73
2022/04/04 00:10:23;;;;;;;;;;;11.50;99.90;;;;;;6244309;23;19958;-71
2022/04/04 00:12:48;;;;;;;;;;;11.50;99.90;;;;;;6243639;23;19904;-73
2022/04/04 00:15:15;;;;;;;;;;;11.50;99.90;;;;;;6243765;23;19910;-72
2022/04/04 00:17:40;;;;;;;;;;;11.50;99.90;;;;;;6244230;23;19903;-72
2022/04/04 00:20:08;;;;;;;;;;;11.50;99.90;;;;;;6216516;23;19926;-71
2022/04/04 00:22:35;;;;;;;;;;;11.50;99.90;;;;;;6243567;23;19970;-71
2022/04/04 00:25:00;;;;;;;;;;;11.40;99.90;;;;;;6243824;23;19914;-73
2022/04/04 00:27:26;;;;;;;;;;;11.40;99.90;;;;;;6244226;23;19919;-71
2022/04/04 00:29:52;;;;;;;;;;;11.30;99.90;;;;;;6243972;23;19915;-72
2022/04/04 00:32:18;;;;;;;;;;;11.30;99.90;;;;;;6244753;23;19983;-72
2022/04/04 00:34:43;;;;;;;;;;;11.20;99.90;;;;;;6246045;23;19908;-72
2022/04/04 00:37:09;;;;;;;;;;;11.30;99.90;;;;;;6245914;23;19911;-72
2022/04/04 00:39:35;;;;;;;;;;;11.20;99.90;;;;;;6245849;23;19903;-73
2022/04/04 00:42:01;;;;;;;;;;;11.20;99.90;;;;;;6246329;23;19904;-73
2022/04/04 00:44:27;;;;;;;;;;;11.10;99.90;;;;;;6245393;23;20236;-73
2022/04/04 00:46:53;;;;;;;;;;;11.10;99.90;;;;;;6218633;23;19904;-71
2022/04/04 00:49:19;;;;;;;;;;;11.10;99.90;;;;;;6245609;23;19982;-73
2022/04/04 00:51:45;;;;;;;;;;;11.00;99.90;;;;;;6245552;23;20020;-73
2022/04/04 00:54:11;;;;;;;;;;;11.00;99.90;;;;;;6245666;23;19910;-73
2022/04/04 00:56:38;;;;;;;;;;;11.00;99.90;;;;;;6245471;23;19982;-74
2022/04/04 00:59:05;;;;;;;;;;;11.00;99.90;;;;;;6245613;23;19908;-73
2022/04/04 01:01:31;;;;;;;;;;;11.00;99.90;;;;;;6245554;23;19942;-73
2022/04/04 01:03:57;;;;;;;;;;;11.00;99.90;;;;;;6245373;23;19927;-73
2022/04/04 01:06:23;;;;;;;;;;;11.00;99.90;;;;;;6245446;23;20226;-73
2022/04/04 01:08:49;;;;;;;;;;;11.00;99.90;;;;;;6245461;23;19998;-72
2022/04/04 01:11:16;;;;;;;;;;;11.00;99.90;;;;;;6245928;23;20256;-73
2022/04/04 01:13:46;;;;;;;;;;;11.00;99.90;;;;;;6245159;23;19962;-73
2022/04/04 01:16:14;;;;;;;;;;;11.00;99.90;;;;;;6245600;23;19904;-73
2022/04/04 01:18:41;;;;;;;;;;;11.00;99.90;;;;;;6244826;23;19964;-73
2022/04/04 01:21:06;;;;;;;;;;;11.00;99.90;;;;;;6245623;23;19903;-73
2022/04/04 01:23:40;;;;;;;;;;;10.90;99.90;;;;;;6245063;23;19908;-73
2022/04/04 01:26:06;;;;;;;;;;;10.90;99.90;;;;;;6245265;23;20029;-73
2022/04/04 01:28:32;;;;;;;;;;;10.90;99.90;;;;;;6245634;23;19930;-73
2022/04/04 01:30:59;;;;;;;;;;;10.90;99.90;;;;;;6245222;23;19904;-73
2022/04/04 01:33:27;;;;;;;;;;;10.90;99.90;;;;;;6245650;23;20246;-72
2022/04/04 01:35:55;;;;;;;;;;;10.90;99.90;;;;;;6245214;23;20216;-74
2022/04/04 01:38:21;;;;;;;;;;;10.90;99.90;;;;;;6245041;23;19986;-73
2022/04/04 01:40:47;;;;;;;;;;;10.90;99.90;;;;;;6245069;23;20001;-72
2022/04/04 01:43:13;;;;;;;;;;;10.90;99.90;;;;;;6244824;23;19939;-73
2022/04/04 01:48:22;;;;;;;;;;;10.80;99.90;;;;;;6245395;23;19950;-73
2022/04/04 01:50:48;;;;;;;;;;;10.80;99.90;;;;;;6244983;23;19907;-71
2022/04/04 01:53:26;;;;;;;;;;;10.80;99.90;;;;;;6245456;23;20225;-74
2022/04/04 01:55:58;;;;;;;;;;;10.70;99.90;;;;;;6245366;23;19915;-74
2022/04/04 01:58:25;;;;;;;;;;;10.70;99.90;;;;;;6245509;23;19930;-72
2022/04/04 02:00:52;;;;;;;;;;;10.80;99.90;;;;;;6245557;23;20232;-72
2022/04/04 02:03:18;;;;;;;;;;;10.80;99.90;;;;;;6244839;23;19907;-72
2022/04/04 02:05:44;;;;;;;;;;;10.70;99.90;;;;;;6245010;23;19914;-73
2022/04/04 02:08:10;;;;;;;;;;;10.70;99.90;;;;;;6245197;23;19931;-72
2022/04/04 02:10:36;;;;;;;;;;;10.70;99.90;;;;;;6245063;23;19966;-71
2022/04/04 02:13:01;;;;;;;;;;;10.80;99.90;;;;;;6245293;23;20305;-72
2022/04/04 02:15:27;;;;;;;;;;;10.70;99.90;;;;;;6245097;23;19937;-72
2022/04/04 02:17:53;;;;;;;;;;;10.80;99.90;;;;;;6244566;23;20213;-72
2022/04/04 02:20:19;;;;;;;;;;;10.70;99.90;;;;;;6245450;23;20315;-72
2022/04/04 02:22:45;;;;;;;;;;;10.70;99.90;;;;;;6244756;23;19904;-70
2022/04/04 02:25:12;;;;;;;;;;;10.70;99.90;;;;;;6245332;23;20065;-72
2022/04/04 02:27:38;;;;;;;;;;;10.70;99.90;;;;;;6244397;23;19903;-70
2022/04/04 02:30:04;;;;;;;;;;;10.70;99.90;;;;;;6244925;23;19977;-71
2022/04/04 02:32:31;;;;;;;;;;;10.70;99.90;;;;;;6244658;23;19964;-71
2022/04/04 02:34:57;;;;;;;;;;;10.70;99.90;;;;;;6244508;23;20339;-73
2022/04/04 02:37:23;;;;;;;;;;;10.70;99.90;;;;;;6244569;23;19910;-72
2022/04/04 02:39:49;;;;;;;;;;;10.60;99.90;;;;;;6244564;23;19911;-72
2022/04/04 02:42:15;;;;;;;;;;;10.60;99.90;;;;;;6244566;23;19903;-72
2022/04/04 02:44:41;;;;;;;;;;;10.60;99.90;;;;;;6244355;23;19990;-72
2022/04/04 02:47:07;;;;;;;;;;;10.60;99.90;;;;;;6244918;23;19908;-72
2022/04/04 02:49:33;;;;;;;;;;;10.60;99.90;;;;;;6244183;23;19914;-73
2022/04/04 02:51:59;;;;;;;;;;;10.70;99.90;;;;;;6244755;23;19978;-72
2022/04/04 02:54:25;;;;;;;;;;;10.60;99.90;;;;;;6243309;23;19973;-73
2022/04/04 02:56:51;;;;;;;;;;;10.60;99.90;;;;;;6243809;23;19927;-72
2022/04/04 02:59:17;;;;;;;;;;;10.50;99.90;;;;;;6244533;23;19904;-73
2022/04/04 03:01:48;;;;;;;;;;;10.50;99.90;;;;;;6244327;23;19986;-71
2022/04/04 03:04:18;;;;;;;;;;;10.50;99.90;;;;;;6244598;23;20007;-68
2022/04/04 03:06:44;;;;;;;;;;;10.50;99.90;;;;;;6244638;23;20232;-72
2022/04/04 03:09:10;;;;;;;;;;;10.50;99.90;;;;;;6245117;23;20232;-73
2022/04/04 03:11:37;;;;;;;;;;;10.30;99.90;;;;;;6218335;23;20229;-72
2022/04/04 03:14:03;;;;;;;;;;;10.30;99.90;;;;;;6245160;23;19904;-73
2022/04/04 03:16:29;;;;;;;;;;;10.30;99.90;;;;;;6245017;23;19928;-71
2022/04/04 03:18:55;;;;;;;;;;;10.30;99.90;;;;;;6218160;23;19916;-72
2022/04/04 03:21:21;;;;;;;;;;;10.30;99.90;;;;;;6244830;23;19904;-69
2022/04/04 03:23:49;;;;;;;;;;;10.30;99.90;;;;;;6244945;23;20050;-71
2022/04/04 03:26:15;;;;;;;;;;;10.30;99.90;;;;;;6245928;23;19904;-71
2022/04/04 03:28:41;;;;;;;;;;;10.30;99.90;;;;;;6245705;23;19939;-70
2022/04/04 03:31:07;;;;;;;;;;;10.30;99.90;;;;;;6218745;23;20376;-73
2022/04/04 03:33:33;;;;;;;;;;;10.30;99.90;;;;;;6245611;23;19939;-73
2022/04/04 03:35:59;;;;;;;;;;;10.30;99.90;;;;;;6246170;23;19910;-72
2022/04/04 03:38:26;;;;;;;;;;;10.30;99.90;;;;;;6245465;23;19904;-72
2022/04/04 03:40:52;;;;;;;;;;;10.30;99.90;;;;;;6245856;23;19986;-71
2022/04/04 03:43:18;;;;;;;;;;;10.30;99.90;;;;;;6245492;23;19943;-71
2022/04/04 03:45:43;;;;;;;;;;;10.40;99.90;;;;;;6246136;23;19904;-71
2022/04/04 03:48:09;;;;;;;;;;;10.40;99.90;;;;;;6245774;23;19903;-72
2022/04/04 03:50:35;;;;;;;;;;;10.30;99.90;;;;;;6246110;23;20093;-72
2022/04/04 03:53:02;;;;;;;;;;;10.30;99.90;;;;;;6245504;23;19944;-74
2022/04/04 03:55:29;;;;;;;;;;;10.30;99.90;;;;;;6245883;23;20229;-72
2022/04/04 03:57:56;;;;;;;;;;;10.20;99.90;;;;;;6245717;23;19962;-71
2022/04/04 04:00:22;;;;;;;;;;;10.30;99.90;;;;;;6245538;23;19967;-72
2022/04/04 04:02:48;;;;;;;;;;;10.20;99.90;;;;;;6245479;23;19904;-71
2022/04/04 04:05:14;;;;;;;;;;;10.20;99.90;;;;;;6245261;23;19915;-73
2022/04/04 04:07:41;;;;;;;;;;;10.20;99.90;;;;;;6245027;23;19911;-74
2022/04/04 04:10:07;;;;;;;;;;;10.30;99.90;;;;;;6245340;23;19973;-74
2022/04/04 04:12:33;;;;;;;;;;;10.20;99.90;;;;;;6245514;23;20232;-73
2022/04/04 04:14:58;;;;;;;;;;;10.20;99.90;;;;;;6245434;23;19949;-71
2022/04/04 04:17:24;;;;;;;;;;;10.30;99.90;;;;;;6245767;23;19908;-71
2022/04/04 04:22:35;;;;;;;;;;;10.30;99.90;;;;;;6245954;23;19910;-71
2022/04/04 04:25:02;;;;;;;;;;;10.30;99.90;;;;;;6246483;23;19960;-72
2022/04/04 04:27:28;;;;;;;;;;;10.30;99.90;;;;;;6245810;23;20378;-71
2022/04/04 04:29:54;;;;;;;;;;;10.30;99.90;;;;;;6246198;23;19935;-71
2022/04/04 04:32:20;;;;;;;;;;;10.30;99.90;;;;;;6245717;23;19910;-72
2022/04/04 04:34:49;;;;;;;;;;;10.30;99.90;;;;;;6245583;23;19904;-69
2022/04/04 04:37:18;;;;;;;;;;;10.30;99.90;;;;;;6245531;23;19914;-70
2022/04/04 04:39:44;;;;;;;;;;;10.30;99.90;;;;;;6246332;23;19931;-71
2022/04/04 04:42:10;;;;;;;;;;;10.40;99.90;;;;;;6246078;23;19927;-73
2022/04/04 04:44:35;;;;;;;;;;;10.40;99.90;;;;;;6245689;23;19911;-73
2022/04/04 04:47:02;;;;;;;;;;;10.40;99.90;;;;;;6245645;23;19904;-72
2022/04/04 04:49:28;;;;;;;;;;;10.50;99.90;;;;;;6245564;23;19904;-71
2022/04/04 04:51:55;;;;;;;;;;;10.50;99.90;;;;;;6246076;23;19908;-72
2022/04/04 04:54:21;;;;;;;;;;;10.40;99.90;;;;;;6245309;23;19904;-72
2022/04/04 04:56:46;;;;;;;;;;;10.40;99.90;;;;;;6245344;23;19910;-72
2022/04/04 04:59:13;;;;;;;;;;;10.40;99.90;;;;;;6245391;23;20240;-73
2022/04/04 05:01:39;;;;;;;;;;;10.40;99.90;;;;;;6245651;23;19904;-73
2022/04/04 05:04:05;;;;;;;;;;;10.40;99.90;;;;;;6245505;23;19916;-71
2022/04/04 05:06:31;;;;;;;;;;;10.50;99.90;;;;;;6245398;23;19938;-69
2022/04/04 05:09:00;;;;;;;;;;;10.60;99.90;;;;;;6245362;23;20293;-69
2022/04/04 05:11:32;;;;;;;;;;;10.60;99.90;;;;;;6245371;23;19903;-66
2022/04/04 05:13:58;;;;;;;;;;;10.60;99.90;;;;;;6245312;23;19949;-68
2022/04/04 05:16:28;;;;;;;;;;;10.60;99.90;;;;;;6244515;23;19965;-68
2022/04/04 05:18:55;;;;;;;;;;;10.60;99.90;;;;;;6246790;23;19922;-72
2022/04/04 05:21:21;;;;;;;;;;;10.60;99.90;;;;;;6247737;23;19955;-72
2022/04/04 05:23:47;;;;;;;;;;;10.60;99.90;;;;;;6248008;23;20355;-71
2022/04/04 05:26:13;;;;;;;;;;;10.60;99.90;;;;;;6247894;23;19904;-71
2022/04/04 05:28:39;;;;;;;;;;;10.70;99.90;;;;;;6247446;23;19910;-72
2022/04/04 05:31:05;;;;;;;;;;;10.70;99.90;;;;;;6246615;23;20325;-72
2022/04/04 05:33:31;;;;;;;;;;;10.70;99.90;;;;;;6246657;23;19934;-74
2022/04/04 05:35:56;;;;;;;;;;;10.60;99.90;;;;;;6246993;23;19911;-74
2022/04/04 05:38:22;;;;;;;;;;;10.70;99.90;;;;;;6247410;23;19904;-73
2022/04/04 05:40:48;;;;;;;;;;;10.80;99.90;;;;;;6247424;23;19982;-75
2022/04/04 05:43:14;;;;;;;;;;;10.90;99.90;;;;;;6247143;23;19994;-73
2022/04/04 05:45:40;;;;;;;;;;;10.90;99.90;;;;;;6246241;23;20306;-73
2022/04/04 05:48:06;;;;;;;;;;;11.00;99.90;;;;;;6245663;23;19935;-74
2022/04/04 05:50:33;;;;;;;;;;;11.00;99.90;;;;;;6218832;23;19904;-74
2022/04/04 05:52:59;;;;;;;;;;;11.00;99.90;;;;;;6245904;23;19947;-73
2022/04/04 05:55:24;;;;;;;;;;;11.00;99.90;;;;;;6246247;23;19965;-74
2022/04/04 05:57:50;;;;;;;;;;;11.00;99.90;;;;;;6245998;23;19982;-74
2022/04/04 06:00:16;;;;;;;;;;;11.10;99.90;;;;;;6246469;23;19954;-71
2022/04/04 06:02:44;;;;;;;;;;;11.20;99.90;;;;;;6245649;23;19986;-72
2022/04/04 06:05:10;;;;;;;;;;;11.30;99.90;;;;;;6245720;23;19939;-73
2022/04/04 06:07:36;;;;;;;;;;;11.30;99.90;;;;;;6245555;23;20212;-72
2022/04/04 06:10:05;;;;;;;;;;;11.30;99.90;;;;;;6246334;23;20267;-72
2022/04/04 06:12:31;;;;;;;;;;;11.30;99.90;;;;;;6246968;23;19903;-74
2022/04/04 06:14:57;;;;;;;;;;;11.40;99.90;;;;;;6246215;23;19904;-73
2022/04/04 06:17:23;;;;;;;;;;;11.50;99.90;;;;;;6246155;23;19904;-71
2022/04/04 06:19:49;;;;;;;;;;;11.60;99.90;;;;;;6218944;23;20228;-73
2022/04/04 06:22:14;;;;;;;;;;;11.60;99.90;;;;;;6246036;23;19927;-71
2022/04/04 06:24:40;;;;;;;;;;;11.70;99.90;;;;;;6218992;23;19934;-73
2022/04/04 06:27:06;;;;;;;;;;;11.70;99.90;;;;;;6246909;23;20335;-73
2022/04/04 06:29:32;;;;;;;;;;;11.70;99.90;;;;;;6245904;23;19949;-72
2022/04/04 06:31:58;;;;;;;;;;;11.80;99.90;;;;;;6246836;23;20201;-73
2022/04/04 06:34:25;;;;;;;;;;;11.80;99.90;;;;;;6246713;23;20009;-72
2022/04/04 06:36:51;;;;;;;;;;;11.90;99.90;;;;;;6246804;23;19957;-72
2022/04/04 06:39:17;;;;;;;;;;;11.90;99.90;;;;;;6246900;23;20351;-72
2022/04/04 06:41:43;;;;;;;;;;;12.00;99.90;;;;;;6246199;23;19903;-72
2022/04/04 06:44:09;;;;;;;;;;;12.00;99.90;;;;;;6246211;23;19912;-75
2022/04/04 06:46:38;;;;;;;;;;;12.10;99.90;;;;;;6246430;23;20279;-75
2022/04/04 06:49:04;;;;;;;;;;;12.10;99.90;;;;;;6219094;23;19903;-74
2022/04/04 06:51:30;;;;;;;;;;;12.20;99.90;;;;;;6246614;23;19910;-75
2022/04/04 06:53:56;;;;;;;;;;;12.30;99.90;;;;;;6247299;23;19904;-74
2022/04/04 06:56:22;;;;;;;;;;;12.30;99.90;;;;;;6246401;23;20225;-74
2022/04/04 06:58:49;;;;;;;;;;;12.20;99.90;;;;;;6246089;23;19950;-74
2022/04/04 07:01:15;;;;;;;;;;;12.20;99.90;;;;;;6246157;23;19981;-75
2022/04/04 07:03:40;;;;;;;;;;;12.30;99.90;;;;;;6246566;23;20297;-77
2022/04/04 07:06:07;;;;;;;;;;;12.30;99.90;;;;;;6246399;23;19931;-70
2022/04/04 07:08:33;;;;;;;;;;;12.40;99.90;;;;;;6246318;23;19904;-76
2022/04/04 07:11:00;;;;;;;;;;;12.40;99.90;;;;;;6247283;23;20309;-75
2022/04/04 07:13:25;;;;;;;;;;;12.40;99.90;;;;;;6246347;23;20011;-74
2022/04/04 07:15:51;;;;;;;;;;;12.50;99.90;;;;;;6246545;23;20231;-74
2022/04/04 07:18:18;;;;;;;;;;;12.60;99.90;;;;;;6246335;23;19962;-73
2022/04/04 07:20:43;;;;;;;;;;;12.60;99.90;;;;;;6245458;23;19914;-74
2022/04/04 07:23:09;;;;;;;;;;;12.70;99.90;;;;;;6245553;23;19990;-76
2022/04/04 07:25:36;;;;;;;;;;;12.80;99.90;;;;;;6245960;23;19994;-74
2022/04/04 07:28:04;;;;;;;;;;;12.90;99.90;;;;;;6245953;23;19904;-75
2022/04/04 07:30:30;;;;;;;;;;;13.00;99.90;;;;;;6245955;23;19915;-75
2022/04/04 07:32:56;;;;;;;;;;;13.10;99.90;;;;;;6245711;23;19903;-74
2022/04/04 07:35:22;;;;;;;;;;;13.20;99.90;;;;;;6245652;23;19908;-74
2022/04/04 07:37:49;;;;;;;;;;;13.20;99.90;;;;;;6218450;23;19903;-74
2022/04/04 07:40:16;;;;;;;;;;;13.20;99.90;;;;;;6245799;23;19926;-74
2022/04/04 07:42:43;;;;;;;;;;;13.40;99.90;;;;;;6218337;23;19986;-73
2022/04/04 07:45:09;;;;;;;;;;;13.60;99.90;;;;;;6245447;23;19915;-75
2022/04/04 07:47:35;;;;;;;;;;;13.80;99.90;;;;;;6245289;23;20351;-74
2022/04/04 07:50:01;;;;;;;;;;;14.00;99.90;;;;;;6244761;23;19978;-74
2022/04/04 07:52:27;;;;;;;;;;;14.00;99.90;;;;;;6245671;23;19941;-73
2022/04/04 07:54:56;;;;;;;;;;;14.10;99.90;;;;;;6244985;23;20006;-74
2022/04/04 07:57:22;;;;;;;;;;;14.30;99.90;;;;;;6244551;23;19966;-74
2022/04/04 07:59:50;;;;;;;;;;;14.60;99.90;;;;;;6245367;23;19903;-75
2022/04/04 08:02:16;;;;;;;;;;;14.90;99.90;;;;;;6244741;23;19935;-74
2022/04/04 08:04:42;;;;;;;;;;;15.00;99.90;;;;;;6245253;23;20327;-74
2022/04/04 08:07:08;;;;;;;;;;;15.20;99.60;;;;;;6244807;23;19904;-72
2022/04/04 08:09:34;;;;;;;;;;;15.30;99.50;;;;;;6245493;23;19904;-73
2022/04/04 08:12:00;;;;;;;;;;;15.30;99.50;;;;;;6217760;23;19982;-74
2022/04/04 08:14:26;;;;;;;;;;;15.20;99.70;;;;;;6244610;23;19922;-75
2022/04/04 08:16:51;;;;;;;;;;;15.20;99.80;;;;;;6245502;23;20304;-75
2022/04/04 08:19:18;;;;;;;;;;;15.40;99.40;;;;;;6245507;23;19923;-73
2022/04/04 08:21:44;;;;;;;;;;;15.20;99.10;;;;;;6246101;23;19903;-73
2022/04/04 08:24:14;;;;;;;;;;;15.20;99.10;;;;;;6245174;23;19965;-76
2022/04/04 08:26:40;;;;;;;;;;;15.20;99.30;;;;;;6246159;23;20283;-75
2022/04/04 08:29:09;;;;;;;;;;;15.40;98.80;;;;;;6245242;23;20190;-75
2022/04/04 08:31:35;;;;;;;;;;;15.50;98.80;;;;;;6245668;23;19914;-74
2022/04/04 08:34:02;;;;;;;;;;;15.30;98.50;;;;;;6245288;23;19904;-74
2022/04/04 08:36:28;;;;;;;;;;;15.50;98.80;;;;;;6246075;23;19904;-74
2022/04/04 08:38:53;;;;;;;;;;;15.90;98.00;;;;;;6218163;23;19964;-74
2022/04/04 08:41:41;;;;;;;;;;;16.10;97.50;;;;;;6245051;23;19910;-75
2022/04/04 08:44:07;;;;;;;;;;;15.90;97.50;;;;;;6245478;23;19912;-74
2022/04/04 08:46:33;;;;;;;;;;;16.10;97.50;;;;;;6245123;23;19926;-74
2022/04/04 08:49:00;;;;;;;;;;;16.30;97.30;;;;;;6245362;23;19959;-74
2022/04/04 08:51:26;;;;;;;;;;;16.50;96.40;;;;;;6245073;23;19907;-74
2022/04/04 08:53:52;;;;;;;;;;;16.80;95.50;;;;;;6246219;23;19903;-75
2022/04/04 08:56:46;;;;;;;;;;;17.00;95.30;;;;;;6246839;23;19904;-75
2022/04/04 08:59:11;;;;;;;;;;;16.80;95.70;;;;;;6247003;23;19914;-74
2022/04/04 09:01:43;;;;;;;;;;;17.00;95.00;;;;;;6246640;23;19923;-73
2022/04/04 09:04:09;;;;;;;;;;;17.00;94.80;;;;;;6244883;23;20041;-75
2022/04/04 09:06:48;;;;;;;;;;;17.10;95.30;;;;;;6246416;23;19935;-75
2022/04/04 09:09:20;;;;;;;;;;;17.10;95.40;;;;;;6246983;23;19904;-75
2022/04/04 09:11:53;;;;;;;;;;;16.90;95.70;;;;;;6246378;23;19962;-75
2022/04/04 09:14:25;;;;;;;;;;;16.90;96.20;;;;;;6246872;23;20016;-75
2022/04/04 09:16:55;;;;;;;;;;;17.10;95.60;;;;;;6247231;23;19938;-75
2022/04/04 09:19:30;;;;;;;;;;;17.40;95.20;;;;;;6245161;23;19970;-73
2022/04/04 09:21:56;;;;;;;;;;;17.60;94.90;;;;;;6246071;23;19912;-73
2022/04/04 09:24:41;;;;;;;;;;;17.30;95.70;;;;;;6246616;23;19934;-72
2022/04/04 09:27:11;;;;;;;;;;;17.30;96.00;;;;;;6246705;23;19903;-68
2022/04/04 09:29:40;;;;;;;;;;;17.40;95.00;;;;;;6219692;23;20117;-73
2022/04/04 09:32:05;;;;;;;;;;;17.30;94.50;;;;;;6246270;23;19915;-70
2022/04/04 09:34:52;;;;;;;;;;;17.50;93.20;;;;;;6246975;23;19903;-74
2022/04/04 09:37:22;;;;;;;;;;;17.10;94.30;;;;;;6246285;23;19931;-73
2022/04/04 09:39:49;;;;;;;;;;;17.20;93.10;;;;;;6219582;23;19904;-75
2022/04/04 09:42:16;;;;;;;;;;;17.30;92.70;;;;;;6247147;23;19934;-75
2022/04/04 09:44:55;;;;;;;;;;;17.60;93.00;;;;;;6219686;23;20007;-73
2022/04/04 09:47:21;;;;;;;;;;;17.70;92.20;;;;;;6246789;23;19907;-72
2022/04/04 09:49:47;;;;;;;;;;;17.80;92.30;;;;;;6219071;23;19903;-74
2022/04/04 09:52:15;;;;;;;;;;;18.10;90.50;;;;;;6246002;23;19915;-74
2022/04/04 09:54:44;;;;;;;;;;;17.70;90.10;;;;;;6246076;23;19903;-74
2022/04/04 09:57:14;;;;;;;;;;;17.60;89.70;;;;;;6246605;23;19972;-74
2022/04/04 09:59:41;;;;;;;;;;;17.80;90.20;;;;;;6245655;23;20378;-73
2022/04/04 10:02:07;;;;;;;;;;;18.10;90.40;;;;;;6245165;23;19948;-72
2022/04/04 10:04:33;;;;;;;;;;;18.00;90.10;;;;;;6245574;23;19958;-73
2022/04/04 10:07:08;;;;;;;;;;;18.00;87.90;;;;;;6245794;23;19907;-73
2022/04/04 10:09:37;;;;;;;;;;;18.00;88.80;;;;;;6246587;23;19918;-72
2022/04/04 10:12:05;;;;;;;;;;;18.20;87.00;;;;;;6246746;23;19903;-74
2022/04/04 10:14:31;;;;;;;;;;;18.20;89.50;;;;;;6245193;23;19995;-72
2022/04/04 10:16:57;;;;;;;;;;;18.30;89.40;;;;;;6245295;23;19911;-73
2022/04/04 10:19:25;;;;;;;;;;;18.30;88.20;;;;;;6244885;23;19996;-74
2022/04/04 10:21:51;;;;;;;;;;;18.30;87.30;;;;;;6245736;23;19907;-75
2022/04/04 10:24:18;;;;;;;;;;;18.30;88.80;;;;;;6246961;23;19911;-74
2022/04/04 10:26:46;;;;;;;;;;;18.30;86.60;;;;;;6246219;23;19903;-72
2022/04/04 10:29:16;;;;;;;;;;;18.10;87.60;;;;;;6245973;23;19904;-75
2022/04/04 10:31:46;;;;;;;;;;;18.10;86.30;;;;;;6246289;23;19904;-74
2022/04/04 10:34:13;;;;;;;;;;;18.00;87.80;;;;;;6245851;23;19908;-75
2022/04/04 10:36:59;;;;;;;;;;;18.10;89.10;;;;;;6245601;23;19995;-74
2022/04/04 10:39:36;;;;;;;;;;;18.40;87.10;;;;;;6244753;23;19909;-73
2022/04/04 10:42:03;;;;;;;;;;;18.40;86.20;;;;;;6218369;23;19910;-73
2022/04/04 10:44:47;;;;;;;;;;;18.40;86.10;;;;;;6245931;23;19983;-73
2022/04/04 10:47:20;;;;;;;;;;;18.40;87.10;;;;;;6245511;23;19904;-71
2022/04/04 10:49:46;;;;;;;;;;;18.40;87.10;;;;;;6245316;23;20324;-73
2022/04/04 10:52:12;;;;;;;;;;;18.60;88.20;;;;;;6246945;23;19903;-72
2022/04/04 10:54:38;;;;;;;;;;;18.80;83.10;;;;;;6247544;23;19926;-74
2022/04/04 10:57:14;;;;;;;;;;;18.90;80.50;;;;;;6246503;23;19904;-72
2022/04/04 10:59:40;;;;;;;;;;;19.00;79.90;;;;;;6246036;23;20314;-72
2022/04/04 11:02:06;;;;;;;;;;;19.40;78.90;;;;;;6245121;23;19953;-72
2022/04/04 11:04:36;;;;;;;;;;;19.50;80.20;;;;;;6244519;23;19923;-73
2022/04/04 11:10:06;;;;;;;;;;;19.30;80.20;;;;;;6246071;23;19984;-72
2022/04/04 11:12:50;;;;;;;;;;;19.40;79.00;;;;;;6246104;23;19904;-73
2022/04/04 11:15:16;;;;;;;;;;;19.50;79.90;;;;;;6244989;23;20300;-73
2022/04/04 11:17:57;;;;;;;;;;;20.00;80.00;;;;;;6245505;23;19904;-72
2022/04/04 11:20:43;;;;;;;;;;;20.50;79.50;;;;;;6245874;23;19916;-73
2022/04/04 11:23:10;;;;;;;;;;;20.80;77.70;;;;;;6245093;23;19907;-73
2022/04/04 11:25:37;;;;;;;;;;;20.60;76.80;;;;;;6245517;23;20325;-72
2022/04/04 11:28:07;;;;;;;;;;;20.10;77.80;;;;;;6245294;23;19939;-72
2022/04/04 11:30:33;;;;;;;;;;;19.80;78.20;;;;;;6245340;23;19904;-73
2022/04/04 11:32:59;;;;;;;;;;;19.50;79.70;;;;;;6245856;23;20219;-72
2022/04/04 11:35:27;;;;;;;;;;;19.30;80.90;;;;;;6245650;23;19908;-74
2022/04/04 11:38:06;;;;;;;;;;;19.30;82.50;;;;;;6245322;23;20213;-71
2022/04/04 11:40:34;;;;;;;;;;;19.40;82.80;;;;;;6245600;23;20309;-72
2022/04/04 11:43:02;;;;;;;;;;;19.50;84.10;;;;;;6245767;23;20300;-72
2022/04/04 11:45:30;;;;;;;;;;;19.70;85.10;;;;;;6245976;23;19907;-73
2022/04/04 11:47:57;;;;;;;;;;;20.00;85.60;;;;;;6245274;23;19908;-73
2022/04/04 11:50:25;;;;;;;;;;;20.10;86.50;;;;;;6245179;23;19911;-73
2022/04/04 11:53:00;;;;;;;;;;;20.50;87.70;;;;;;6245532;23;20282;-72
2022/04/04 11:55:27;;;;;;;;;;;20.50;86.70;;;;;;6245405;23;19908;-74
2022/04/04 11:57:57;;;;;;;;;;;20.20;87.60;;;;;;6245247;23;20213;-73
2022/04/04 12:00:24;;;;;;;;;;;19.90;88.60;;;;;;6245756;23;19965;-73
2022/04/04 12:02:49;;;;;;;;;;;19.90;87.70;;;;;;6246088;23;19903;-73
2022/04/04 12:05:21;;;;;;;;;;;20.00;87.30;;;;;;6245727;23;19919;-74
2022/04/04 12:07:48;;;;;;;;;;;20.10;88.10;;;;;;6245940;23;19939;-74
2022/04/04 12:10:17;;;;;;;;;;;20.20;87.60;;;;;;6246177;23;20374;-73
2022/04/04 12:12:43;;;;;;;;;;;20.10;87.70;;;;;;6246591;23;19911;-73
2022/04/04 12:15:09;;;;;;;;;;;19.90;88.40;;;;;;6246180;23;19934;-73
2022/04/04 12:17:35;;;;;;;;;;;19.80;89.30;;;;;;6246326;23;19910;-72
2022/04/04 12:20:08;;;;;;;;;;;19.80;88.20;;;;;;6246033;23;19992;-73
2022/04/04 12:25:19;;;;;;;;;;;19.70;90.90;;;;;;6246935;23;19918;-73
2022/04/04 12:27:55;;;;;;;;;;;19.80;91.30;;;;;;6247680;23;19939;-74
2022/04/04 12:30:28;;;;;;;;;;;19.80;91.10;;;;;;6248576;23;19904;-73
2022/04/04 12:32:53;;;;;;;;;;;19.80;91.30;;;;;;6248488;23;19904;-73
2022/04/04 12:35:20;;;;;;;;;;;19.60;90.60;;;;;;6221038;23;20311;-73
2022/04/04 12:37:46;;;;;;;;;;;19.40;91.10;;;;;;6247998;23;20013;-71
2022/04/04 12:40:16;;;;;;;;;;;19.40;91.10;;;;;;6247964;23;20321;-73
2022/04/04 12:42:42;;;;;;;;;;;19.30;91.80;;;;;;6220593;23;19903;-72
2022/04/04 12:45:10;;;;;;;;;;;19.30;92.40;;;;;;6247987;23;19912;-74
2022/04/04 12:47:52;;;;;;;;;;;19.50;92.40;;;;;;6220980;23;19907;-74
2022/04/04 12:50:21;;;;;;;;;;;19.80;91.80;;;;;;6247786;23;19904;-74
2022/04/04 12:52:57;;;;;;;;;;;19.60;92.00;;;;;;6248142;23;19999;-74
2022/04/04 12:55:22;;;;;;;;;;;19.50;92.30;;;;;;6247444;23;20230;-75
2022/04/04 12:57:48;;;;;;;;;;;19.60;92.30;;;;;;6220306;23;19915;-74
2022/04/04 13:00:38;;;;;;;;;;;19.60;91.70;;;;;;6247822;23;19911;-73
2022/04/04 13:03:22;;;;;;;;;;;19.60;91.60;;;;;;6220195;23;19904;-74
2022/04/04 13:05:55;;;;;;;;;;;19.40;90.90;;;;;;6220267;23;19906;-74
2022/04/04 13:08:22;;;;;;;;;;;19.20;91.70;;;;;;6247422;23;19914;-75
2022/04/04 13:11:07;;;;;;;;;;;19.20;91.80;;;;;;6219993;23;20335;-72
2022/04/04 13:13:34;;;;;;;;;;;19.10;91.50;;;;;;6247030;23;19903;-73
2022/04/04 13:16:00;;;;;;;;;;;19.00;91.70;;;;;;6247193;23;19903;-74
2022/04/04 13:18:28;;;;;;;;;;;19.30;91.70;;;;;;6247267;23;19922;-72
2022/04/04 13:20:55;;;;;;;;;;;19.40;92.00;;;;;;6248391;23;19908;-72
2022/04/04 13:23:22;;;;;;;;;;;19.30;92.40;;;;;;6247342;23;19991;-74
2022/04/04 13:25:50;;;;;;;;;;;19.20;92.90;;;;;;6247710;23;19904;-74
2022/04/04 13:28:16;;;;;;;;;;;19.10;93.30;;;;;;6247695;23;19934;-73
2022/04/04 13:30:42;;;;;;;;;;;19.30;92.50;;;;;;6247480;23;19939;-73
2022/04/04 13:33:08;;;;;;;;;;;19.30;92.00;;;;;;6247787;23;19986;-73
2022/04/04 13:35:34;;;;;;;;;;;19.30;92.50;;;;;;6248005;23;19950;-73
2022/04/04 13:38:00;;;;;;;;;;;19.40;92.90;;;;;;6247331;23;19903;-73
2022/04/04 13:40:26;;;;;;;;;;;19.30;93.30;;;;;;6248156;23;20260;-73
2022/04/04 13:42:52;;;;;;;;;;;19.20;93.50;;;;;;6247505;23;19910;-75
2022/04/04 13:45:18;;;;;;;;;;;19.10;93.90;;;;;;6247365;23;19919;-74
2022/04/04 13:47:44;;;;;;;;;;;19.10;93.80;;;;;;6247858;23;19910;-71
2022/04/04 13:50:10;;;;;;;;;;;19.40;93.70;;;;;;6247257;23;20226;-74
2022/04/04 13:52:40;;;;;;;;;;;19.30;93.30;;;;;;6246114;23;20313;-73
2022/04/04 13:55:08;;;;;;;;;;;19.00;93.70;;;;;;6245804;23;20278;-73
2022/04/04 13:57:34;;;;;;;;;;;19.00;94.00;;;;;;6246647;23;19911;-71
2022/04/04 14:00:00;;;;;;;;;;;19.10;94.10;;;;;;6246629;23;20006;-72
2022/04/04 14:02:26;;;;;;;;;;;19.10;93.80;;;;;;6246684;23;19908;-72
2022/04/04 14:04:52;;;;;;;;;;;19.10;93.60;;;;;;6247430;23;19934;-74
2022/04/04 14:07:17;;;;;;;;;;;19.00;93.30;;;;;;6246608;23;19904;-74
2022/04/04 14:09:57;;;;;;;;;;;19.00;93.80;;;;;;6247107;23;19987;-73
2022/04/04 14:12:23;;;;;;;;;;;19.10;93.20;;;;;;6246952;23;19903;-72
2022/04/04 14:14:49;;;;;;;;;;;19.20;93.10;;;;;;6247155;23;19974;-74
2022/04/04 14:17:16;;;;;;;;;;;19.10;93.50;;;;;;6246512;23;19927;-74
2022/04/04 14:19:42;;;;;;;;;;;19.00;93.60;;;;;;6246642;23;20038;-75
2022/04/04 14:22:09;;;;;;;;;;;19.00;93.50;;;;;;6219747;23;19958;-75
2022/04/04 14:24:35;;;;;;;;;;;19.00;93.50;;;;;;6247088;23;20042;-73
2022/04/04 14:27:01;;;;;;;;;;;19.10;93.40;;;;;;6246972;23;19904;-72
2022/04/04 14:29:27;;;;;;;;;;;19.30;93.30;;;;;;6246773;23;19903;-72